Report METAR

 

LIBD - Bari/Palese Macc, Italy
Distance from station: NNW 20km
Dati ricevuti: 04/02/2023 03:20
Cielo sereno o poche nubi
Cielo sereno o poche nubi
 Vento da W
Vento: W 15 km/h
Temperatura: 11°C
P.to Rugiada: 3°C
Umidità: 58%
Pressione: 1019 hPa
Riassunto: Cielo sereno o poche nubi
Visibility: superiore a 10 km
2023/02/04 02:20 LIBD 040220Z 28008KT CAVOK 11/03 Q1019
LIBV - Gioia Del Colle, Italy
Distance from station: SSE 21km
Dati ricevuti: 04/02/2023 02:55
Cielo sereno o poche nubi
Cielo sereno o poche nubi
 Vento da WNW
Vento: WNW 17 km/h
Temperatura: 8°C
Temperatura Vento: 5°C
P.to Rugiada: 1°C
Umidità: 62%
Pressione: 1018 hPa
Riassunto: Cielo sereno o poche nubi
Visibility: superiore a 10 km
2023/02/04 01:55 LIBV 040155Z 29009KT CAVOK 08/01 Q1018